Kipling, Ohio
Current Conditions -  °F | °C
As of 10:53 PM on Thursday 18 Dec 2014 (Local Time) from KZZV Reporting Station
Overcast Overcast  
Wind Chill: 27°   Ceiling: 2300
Heat Index: 27°   Visibility: 7mi
Dew Point: 23°   Wind: 3mph
Humidity: 85%   Direction: 240°WSW
Pressure: 30.2"   Gusts: NA
Location:  40°N, 81.5°W
Report Text: KZZV 190353Z AUTO 24003KT 7SM OVC023 M03/M05 A3020 RMK AO2 SLP238 T10281050
Loading
Personal Weather Stations






























Interactive Weather Map New forecast layout! Learn more

10-Day Weather Forecast

Advertisements
Track Severe Weather on mobile